Airfield :
LOGIN :

Register | Disclaimer

   EN    FR    IT 

 










Legend :    VFR   Marginal VFR   IFR   Intensive IFR   Very Intensive IFR
Visi :
Ceiling :
>= 8 km
>= 3000ft
5 to 8 km
1000 to 3000 ft
1500m to 5 km
500 to 1000 ft
800 to 1500m
200 to 500 ft
< 800m
< 200 ft
Symbols :   Thunderstorms  Fog  Heavy snow  Heavy precipitations  Wind > 20 kt
SIGMETs :     Misc.  Thunderstorms  Icing  Turbulence  Mountain Waves  Volcanic Ashes






- Airport Elevation : 112 ft
- IATA code : KIR


EIKY - Kerry Farranfore

CURRENT METAR :
  • 271130Z 30003KT 240V350 9999 SCT024CB BKN040 07/03 Q1010

EXPIRED METARs :
  • 271100Z 28003KT 210V320 9999 FEW012 SCT025 07/03 Q1009
  • 271030Z 26004KT 240V310 9999 FEW038 06/03 Q1009
  • 271000Z 25004KT 9999 SCT031 05/03 Q1008
  • 270930Z 22004KT 9999 FEW028 03/02 Q1008
  • 270900Z 30004KT 240V350 9999 FEW013 SCT024 03/02 Q1007

TAF COR TAF EIKY
Valid from the 27 at 12:00 until the 27 at 21:00 UTC


271146Z 2712/2721 29008KT 9999 FEW025
TEMPO 2712/2713 -SHRA FEW020CB
BECMG 2715/2717 26007KT
BECMG 2718/2720 17009KT



MET'MAP, your aeronautical weather chart ! - Copyright ORBIFLY December 2007 - Disclaimer

ORBIFLY MET'MAP TEAM :

Programming & Development : Alexandra Zaïnal
Concept & original design : Baudouin d'Aumeries
Assistance for programming : Marc-Olivier Méhu
Technical & hardware support : Manuel Goepfert

Contact : metmap@orbifly.com




SOURCES & CREDITS :

   NOAA